sensor_id;sensor_type;location;lat;lon;timestamp;P1;durP1;ratioP1;P2;durP2;ratioP2
78989;SDS011;68390;52.130;21.218;2024-01-16T00:01:14;6.85;;;2.35;;
78989;SDS011;68390;52.130;21.218;2024-01-16T00:03:40;4.70;;;2.25;;
78989;SDS011;68390;52.130;21.218;2024-01-16T00:06:05;4.20;;;2.08;;
78989;SDS011;68390;52.130;21.218;2024-01-16T00:08:32;3.45;;;1.73;;
78989;SDS011;68390;52.130;21.218;2024-01-16T00:10:57;4.53;;;1.85;;
78989;SDS011;68390;52.130;21.218;2024-01-16T00:13:22;9.00;;;3.07;;
78989;SDS011;68390;52.130;21.218;2024-01-16T00:15:48;3.83;;;2.00;;
78989;SDS011;68390;52.130;21.218;2024-01-16T00:18:14;7.93;;;2.58;;
78989;SDS011;68390;52.130;21.218;2024-01-16T00:20:40;3.85;;;2.10;;
78989;SDS011;68390;52.130;21.218;2024-01-16T00:23:06;3.83;;;1.95;;
78989;SDS011;68390;52.130;21.218;2024-01-16T00:25:31;3.70;;;2.13;;
78989;SDS011;68390;52.130;21.218;2024-01-16T00:27:57;2.88;;;1.70;;
78989;SDS011;68390;52.130;21.218;2024-01-16T00:30:22;6.75;;;2.67;;
78989;SDS011;68390;52.130;21.218;2024-01-16T00:32:47;3.88;;;1.98;;
78989;SDS011;68390;52.130;21.218;2024-01-16T00:35:13;3.47;;;1.77;;
78989;SDS011;68390;52.130;21.218;2024-01-16T00:37:38;9.15;;;3.40;;
78989;SDS011;68390;52.130;21.218;2024-01-16T00:40:04;4.70;;;2.03;;
78989;SDS011;68390;52.130;21.218;2024-01-16T00:42:31;4.43;;;2.40;;
78989;SDS011;68390;52.130;21.218;2024-01-16T00:44:57;4.72;;;2.00;;
78989;SDS011;68390;52.130;21.218;2024-01-16T00:47:22;3.95;;;2.00;;
78989;SDS011;68390;52.130;21.218;2024-01-16T00:49:48;7.57;;;2.45;;
78989;SDS011;68390;52.130;21.218;2024-01-16T00:52:13;2.93;;;1.80;;
78989;SDS011;68390;52.130;21.218;2024-01-16T00:54:38;5.53;;;2.00;;
78989;SDS011;68390;52.130;21.218;2024-01-16T00:57:05;3.35;;;1.70;;
78989;SDS011;68390;52.130;21.218;2024-01-16T00:59:30;4.65;;;2.20;;
78989;SDS011;68390;52.130;21.218;2024-01-16T01:01:55;5.53;;;2.00;;
78989;SDS011;68390;52.130;21.218;2024-01-16T01:04:21;4.37;;;2.10;;
78989;SDS011;68390;52.130;21.218;2024-01-16T01:06:46;4.70;;;2.03;;
78989;SDS011;68390;52.130;21.218;2024-01-16T01:09:11;3.00;;;1.85;;
78989;SDS011;68390;52.130;21.218;2024-01-16T01:11:38;4.88;;;1.73;;
78989;SDS011;68390;52.130;21.218;2024-01-16T01:14:04;4.88;;;2.05;;
78989;SDS011;68390;52.130;21.218;2024-01-16T01:16:29;3.25;;;1.83;;
78989;SDS011;68390;52.130;21.218;2024-01-16T01:18:54;4.07;;;1.90;;
78989;SDS011;68390;52.130;21.218;2024-01-16T01:21:20;5.10;;;2.00;;
78989;SDS011;68390;52.130;21.218;2024-01-16T01:23:45;4.87;;;2.00;;
78989;SDS011;68390;52.130;21.218;2024-01-16T01:26:11;3.90;;;2.00;;
78989;SDS011;68390;52.130;21.218;2024-01-16T01:28:39;3.97;;;1.70;;
78989;SDS011;68390;52.130;21.218;2024-01-16T01:31:05;4.78;;;2.70;;
78989;SDS011;68390;52.130;21.218;2024-01-16T01:33:33;5.13;;;2.00;;
78989;SDS011;68390;52.130;21.218;2024-01-16T01:35:58;2.93;;;1.90;;
78989;SDS011;68390;52.130;21.218;2024-01-16T01:38:23;4.20;;;2.05;;
78989;SDS011;68390;52.130;21.218;2024-01-16T01:40:49;2.70;;;1.70;;
78989;SDS011;68390;52.130;21.218;2024-01-16T01:43:18;6.57;;;1.90;;
78989;SDS011;68390;52.130;21.218;2024-01-16T01:48:30;6.28;;;2.33;;
78989;SDS011;68390;52.130;21.218;2024-01-16T01:50:57;4.90;;;1.70;;
78989;SDS011;68390;52.130;21.218;2024-01-16T01:53:23;4.32;;;2.35;;
78989;SDS011;68390;52.130;21.218;2024-01-16T01:55:49;4.00;;;1.90;;
78989;SDS011;68390;52.130;21.218;2024-01-16T01:58:15;7.25;;;2.35;;
78989;SDS011;68390;52.130;21.218;2024-01-16T02:00:41;3.70;;;2.08;;
78989;SDS011;68390;52.130;21.218;2024-01-16T02:03:06;6.50;;;2.15;;
78989;SDS011;68390;52.130;21.218;2024-01-16T02:05:32;3.10;;;2.00;;
78989;SDS011;68390;52.130;21.218;2024-01-16T02:07:58;4.15;;;2.15;;
78989;SDS011;68390;52.130;21.218;2024-01-16T02:10:25;6.43;;;2.45;;
78989;SDS011;68390;52.130;21.218;2024-01-16T02:12:51;2.70;;;1.70;;
78989;SDS011;68390;52.130;21.218;2024-01-16T02:15:16;2.92;;;1.70;;
78989;SDS011;68390;52.130;21.218;2024-01-16T02:17:41;3.92;;;1.70;;
78989;SDS011;68390;52.130;21.218;2024-01-16T02:20:07;3.50;;;1.53;;
78989;SDS011;68390;52.130;21.218;2024-01-16T02:22:33;2.97;;;1.50;;
78989;SDS011;68390;52.130;21.218;2024-01-16T02:25:00;4.15;;;1.80;;
78989;SDS011;68390;52.130;21.218;2024-01-16T02:27:26;3.55;;;2.38;;
78989;SDS011;68390;52.130;21.218;2024-01-16T02:29:51;4.68;;;1.90;;
78989;SDS011;68390;52.130;21.218;2024-01-16T02:32:17;3.00;;;1.50;;
78989;SDS011;68390;52.130;21.218;2024-01-16T02:34:42;5.30;;;2.60;;
78989;SDS011;68390;52.130;21.218;2024-01-16T02:37:08;4.15;;;1.90;;
78989;SDS011;68390;52.130;21.218;2024-01-16T02:39:34;3.45;;;1.80;;
78989;SDS011;68390;52.130;21.218;2024-01-16T02:41:59;17.38;;;4.90;;
78989;SDS011;68390;52.130;21.218;2024-01-16T02:44:25;3.63;;;1.80;;
78989;SDS011;68390;52.130;21.218;2024-01-16T02:46:50;4.22;;;1.95;;
78989;SDS011;68390;52.130;21.218;2024-01-16T02:49:15;4.63;;;1.90;;
78989;SDS011;68390;52.130;21.218;2024-01-16T02:51:41;3.20;;;1.90;;
78989;SDS011;68390;52.130;21.218;2024-01-16T02:54:07;4.30;;;2.20;;
78989;SDS011;68390;52.130;21.218;2024-01-16T02:56:33;3.65;;;1.90;;
78989;SDS011;68390;52.130;21.218;2024-01-16T02:58:58;3.03;;;1.90;;
78989;SDS011;68390;52.130;21.218;2024-01-16T03:01:26;6.93;;;2.70;;
78989;SDS011;68390;52.130;21.218;2024-01-16T03:03:51;3.58;;;2.17;;
78989;SDS011;68390;52.130;21.218;2024-01-16T03:06:23;5.20;;;2.30;;
78989;SDS011;68390;52.130;21.218;2024-01-16T03:08:49;5.97;;;2.55;;
78989;SDS011;68390;52.130;21.218;2024-01-16T03:11:16;4.40;;;2.03;;
78989;SDS011;68390;52.130;21.218;2024-01-16T03:13:41;5.33;;;2.37;;
78989;SDS011;68390;52.130;21.218;2024-01-16T03:16:07;2.63;;;1.37;;
78989;SDS011;68390;52.130;21.218;2024-01-16T03:18:32;4.47;;;2.10;;
78989;SDS011;68390;52.130;21.218;2024-01-16T03:20:58;5.07;;;2.00;;
78989;SDS011;68390;52.130;21.218;2024-01-16T03:23:24;3.33;;;1.85;;
78989;SDS011;68390;52.130;21.218;2024-01-16T03:25:49;6.43;;;2.15;;
78989;SDS011;68390;52.130;21.218;2024-01-16T03:28:15;3.25;;;1.67;;
78989;SDS011;68390;52.130;21.218;2024-01-16T03:30:40;2.43;;;1.30;;
78989;SDS011;68390;52.130;21.218;2024-01-16T03:33:06;3.90;;;1.90;;
78989;SDS011;68390;52.130;21.218;2024-01-16T03:35:31;5.47;;;1.60;;
78989;SDS011;68390;52.130;21.218;2024-01-16T03:37:57;3.22;;;1.80;;
78989;SDS011;68390;52.130;21.218;2024-01-16T03:40:22;3.07;;;1.57;;
78989;SDS011;68390;52.130;21.218;2024-01-16T03:42:47;2.17;;;1.38;;
78989;SDS011;68390;52.130;21.218;2024-01-16T03:45:13;2.97;;;1.70;;
78989;SDS011;68390;52.130;21.218;2024-01-16T03:47:38;2.47;;;1.63;;
78989;SDS011;68390;52.130;21.218;2024-01-16T03:50:04;4.57;;;1.90;;
78989;SDS011;68390;52.130;21.218;2024-01-16T03:52:29;3.72;;;1.70;;
78989;SDS011;68390;52.130;21.218;2024-01-16T03:54:55;2.73;;;1.70;;
78989;SDS011;68390;52.130;21.218;2024-01-16T03:57:20;5.93;;;2.00;;
78989;SDS011;68390;52.130;21.218;2024-01-16T03:59:46;3.33;;;1.98;;
78989;SDS011;68390;52.130;21.218;2024-01-16T04:02:11;5.05;;;1.60;;
78989;SDS011;68390;52.130;21.218;2024-01-16T04:04:36;3.67;;;1.80;;
78989;SDS011;68390;52.130;21.218;2024-01-16T04:07:02;4.30;;;1.33;;
78989;SDS011;68390;52.130;21.218;2024-01-16T04:09:27;2.97;;;1.92;;
78989;SDS011;68390;52.130;21.218;2024-01-16T04:11:54;4.80;;;2.00;;
78989;SDS011;68390;52.130;21.218;2024-01-16T04:14:19;4.50;;;1.50;;
78989;SDS011;68390;52.130;21.218;2024-01-16T04:16:45;3.95;;;2.00;;
78989;SDS011;68390;52.130;21.218;2024-01-16T04:19:10;3.83;;;2.00;;
78989;SDS011;68390;52.130;21.218;2024-01-16T04:21:36;2.85;;;1.70;;
78989;SDS011;68390;52.130;21.218;2024-01-16T04:24:01;3.13;;;1.70;;
78989;SDS011;68390;52.130;21.218;2024-01-16T04:26:27;3.63;;;1.98;;
78989;SDS011;68390;52.130;21.218;2024-01-16T04:28:52;4.50;;;1.87;;
78989;SDS011;68390;52.130;21.218;2024-01-16T04:31:18;3.78;;;1.98;;
78989;SDS011;68390;52.130;21.218;2024-01-16T04:33:44;4.97;;;1.90;;
78989;SDS011;68390;52.130;21.218;2024-01-16T04:36:09;3.95;;;2.00;;
78989;SDS011;68390;52.130;21.218;2024-01-16T04:38:35;2.15;;;1.55;;
78989;SDS011;68390;52.130;21.218;2024-01-16T04:41:01;3.50;;;1.67;;
78989;SDS011;68390;52.130;21.218;2024-01-16T04:43:27;3.75;;;1.70;;
78989;SDS011;68390;52.130;21.218;2024-01-16T04:45:52;5.03;;;2.13;;
78989;SDS011;68390;52.130;21.218;2024-01-16T04:48:18;2.90;;;1.60;;
78989;SDS011;68390;52.130;21.218;2024-01-16T04:50:43;3.67;;;1.80;;
78989;SDS011;68390;52.130;21.218;2024-01-16T04:53:10;4.50;;;1.77;;
78989;SDS011;68390;52.130;21.218;2024-01-16T04:55:35;2.88;;;1.80;;
78989;SDS011;68390;52.130;21.218;2024-01-16T04:58:01;2.77;;;1.70;;
78989;SDS011;68390;52.130;21.218;2024-01-16T05:00:26;4.10;;;1.70;;
78989;SDS011;68390;52.130;21.218;2024-01-16T05:02:52;4.82;;;1.98;;
78989;SDS011;68390;52.130;21.218;2024-01-16T05:05:18;3.28;;;1.73;;
78989;SDS011;68390;52.130;21.218;2024-01-16T05:07:43;3.53;;;1.73;;
78989;SDS011;68390;52.130;21.218;2024-01-16T05:10:10;3.05;;;1.70;;
78989;SDS011;68390;52.130;21.218;2024-01-16T05:12:39;3.72;;;1.67;;
78989;SDS011;68390;52.130;21.218;2024-01-16T05:15:05;3.45;;;2.03;;
78989;SDS011;68390;52.130;21.218;2024-01-16T05:17:31;4.70;;;2.00;;
78989;SDS011;68390;52.130;21.218;2024-01-16T05:19:57;3.17;;;1.70;;
78989;SDS011;68390;52.130;21.218;2024-01-16T05:22:22;2.80;;;1.70;;
78989;SDS011;68390;52.130;21.218;2024-01-16T05:24:47;3.35;;;1.85;;
78989;SDS011;68390;52.130;21.218;2024-01-16T05:27:13;4.60;;;1.63;;
78989;SDS011;68390;52.130;21.218;2024-01-16T05:29:40;2.92;;;1.90;;
78989;SDS011;68390;52.130;21.218;2024-01-16T05:32:06;2.53;;;1.60;;
78989;SDS011;68390;52.130;21.218;2024-01-16T05:34:31;5.22;;;2.00;;
78989;SDS011;68390;52.130;21.218;2024-01-16T05:36:57;5.20;;;2.63;;
78989;SDS011;68390;52.130;21.218;2024-01-16T05:39:22;4.18;;;1.95;;
78989;SDS011;68390;52.130;21.218;2024-01-16T05:41:48;5.82;;;3.78;;
78989;SDS011;68390;52.130;21.218;2024-01-16T05:44:13;7.07;;;4.95;;
78989;SDS011;68390;52.130;21.218;2024-01-16T05:46:38;4.30;;;2.28;;
78989;SDS011;68390;52.130;21.218;2024-01-16T05:49:04;4.67;;;2.70;;
78989;SDS011;68390;52.130;21.218;2024-01-16T05:51:29;4.75;;;3.35;;
78989;SDS011;68390;52.130;21.218;2024-01-16T05:53:54;3.75;;;2.45;;
78989;SDS011;68390;52.130;21.218;2024-01-16T05:56:20;3.17;;;2.00;;
78989;SDS011;68390;52.130;21.218;2024-01-16T05:58:45;3.58;;;2.15;;
78989;SDS011;68390;52.130;21.218;2024-01-16T06:01:11;4.20;;;2.58;;
78989;SDS011;68390;52.130;21.218;2024-01-16T06:03:38;4.53;;;2.45;;
78989;SDS011;68390;52.130;21.218;2024-01-16T06:06:07;4.97;;;2.33;;
78989;SDS011;68390;52.130;21.218;2024-01-16T06:08:32;4.53;;;2.67;;
78989;SDS011;68390;52.130;21.218;2024-01-16T06:10:58;5.03;;;2.38;;
78989;SDS011;68390;52.130;21.218;2024-01-16T06:13:23;6.07;;;2.53;;
78989;SDS011;68390;52.130;21.218;2024-01-16T06:15:49;5.47;;;2.58;;
78989;SDS011;68390;52.130;21.218;2024-01-16T06:18:14;4.93;;;2.60;;
78989;SDS011;68390;52.130;21.218;2024-01-16T06:20:39;6.67;;;4.00;;
78989;SDS011;68390;52.130;21.218;2024-01-16T06:23:05;4.93;;;3.55;;
78989;SDS011;68390;52.130;21.218;2024-01-16T06:25:30;3.93;;;2.23;;
78989;SDS011;68390;52.130;21.218;2024-01-16T06:27:55;5.93;;;3.43;;
78989;SDS011;68390;52.130;21.218;2024-01-16T06:30:24;6.65;;;4.15;;
78989;SDS011;68390;52.130;21.218;2024-01-16T06:32:49;4.55;;;3.03;;
78989;SDS011;68390;52.130;21.218;2024-01-16T06:35:15;5.45;;;2.63;;
78989;SDS011;68390;52.130;21.218;2024-01-16T06:37:41;6.30;;;2.88;;
78989;SDS011;68390;52.130;21.218;2024-01-16T06:40:07;9.68;;;4.85;;
78989;SDS011;68390;52.130;21.218;2024-01-16T06:42:32;7.65;;;4.22;;
78989;SDS011;68390;52.130;21.218;2024-01-16T06:44:58;8.45;;;4.53;;
78989;SDS011;68390;52.130;21.218;2024-01-16T06:47:24;5.05;;;3.22;;
78989;SDS011;68390;52.130;21.218;2024-01-16T06:49:49;7.27;;;4.03;;
78989;SDS011;68390;52.130;21.218;2024-01-16T06:52:14;6.70;;;2.80;;
78989;SDS011;68390;52.130;21.218;2024-01-16T06:54:40;5.80;;;3.33;;
78989;SDS011;68390;52.130;21.218;2024-01-16T06:57:05;7.03;;;3.30;;
78989;SDS011;68390;52.130;21.218;2024-01-16T06:59:30;5.63;;;2.90;;
78989;SDS011;68390;52.130;21.218;2024-01-16T07:01:56;6.07;;;3.57;;
78989;SDS011;68390;52.130;21.218;2024-01-16T07:04:21;5.40;;;2.55;;
78989;SDS011;68390;52.130;21.218;2024-01-16T07:06:47;5.40;;;2.22;;
78989;SDS011;68390;52.130;21.218;2024-01-16T07:09:13;4.22;;;2.63;;
78989;SDS011;68390;52.130;21.218;2024-01-16T07:11:41;4.97;;;2.90;;
78989;SDS011;68390;52.130;21.218;2024-01-16T07:14:08;4.55;;;2.47;;
78989;SDS011;68390;52.130;21.218;2024-01-16T07:16:34;5.50;;;3.08;;
78989;SDS011;68390;52.130;21.218;2024-01-16T07:19:00;7.75;;;4.13;;
78989;SDS011;68390;52.130;21.218;2024-01-16T07:21:27;9.15;;;3.42;;
78989;SDS011;68390;52.130;21.218;2024-01-16T07:23:53;5.88;;;2.50;;
78989;SDS011;68390;52.130;21.218;2024-01-16T07:26:18;6.03;;;3.05;;
78989;SDS011;68390;52.130;21.218;2024-01-16T07:28:44;5.37;;;2.60;;
78989;SDS011;68390;52.130;21.218;2024-01-16T07:31:09;10.27;;;5.80;;
78989;SDS011;68390;52.130;21.218;2024-01-16T07:33:34;9.32;;;4.13;;
78989;SDS011;68390;52.130;21.218;2024-01-16T07:36:00;5.40;;;2.97;;
78989;SDS011;68390;52.130;21.218;2024-01-16T07:38:26;5.05;;;2.75;;
78989;SDS011;68390;52.130;21.218;2024-01-16T07:40:51;13.35;;;6.38;;
78989;SDS011;68390;52.130;21.218;2024-01-16T07:43:17;7.90;;;3.88;;
78989;SDS011;68390;52.130;21.218;2024-01-16T07:45:42;5.47;;;3.17;;
78989;SDS011;68390;52.130;21.218;2024-01-16T07:48:07;4.77;;;2.60;;
78989;SDS011;68390;52.130;21.218;2024-01-16T07:50:33;4.35;;;2.47;;
78989;SDS011;68390;52.130;21.218;2024-01-16T07:52:58;4.43;;;1.90;;
78989;SDS011;68390;52.130;21.218;2024-01-16T07:55:24;3.67;;;2.13;;
78989;SDS011;68390;52.130;21.218;2024-01-16T07:57:49;5.77;;;2.77;;
78989;SDS011;68390;52.130;21.218;2024-01-16T08:00:14;4.82;;;2.08;;
78989;SDS011;68390;52.130;21.218;2024-01-16T08:02:40;2.90;;;1.70;;
78989;SDS011;68390;52.130;21.218;2024-01-16T08:05:07;3.05;;;1.60;;
78989;SDS011;68390;52.130;21.218;2024-01-16T08:07:32;5.13;;;1.88;;
78989;SDS011;68390;52.130;21.218;2024-01-16T08:09:57;3.83;;;2.28;;
78989;SDS011;68390;52.130;21.218;2024-01-16T08:12:23;3.50;;;1.70;;
78989;SDS011;68390;52.130;21.218;2024-01-16T08:14:48;4.75;;;1.80;;
78989;SDS011;68390;52.130;21.218;2024-01-16T08:17:14;3.35;;;1.70;;
78989;SDS011;68390;52.130;21.218;2024-01-16T08:19:39;2.58;;;1.33;;
78989;SDS011;68390;52.130;21.218;2024-01-16T08:22:04;2.70;;;1.42;;
78989;SDS011;68390;52.130;21.218;2024-01-16T08:24:31;2.20;;;1.30;;
78989;SDS011;68390;52.130;21.218;2024-01-16T08:26:56;3.95;;;1.50;;
78989;SDS011;68390;52.130;21.218;2024-01-16T08:29:24;2.47;;;1.20;;
78989;SDS011;68390;52.130;21.218;2024-01-16T08:31:50;3.03;;;1.60;;
78989;SDS011;68390;52.130;21.218;2024-01-16T08:34:19;2.40;;;1.35;;
78989;SDS011;68390;52.130;21.218;2024-01-16T08:36:44;3.83;;;1.45;;
78989;SDS011;68390;52.130;21.218;2024-01-16T08:39:10;2.25;;;1.20;;
78989;SDS011;68390;52.130;21.218;2024-01-16T08:41:35;3.30;;;1.60;;
78989;SDS011;68390;52.130;21.218;2024-01-16T08:44:01;6.30;;;1.58;;
78989;SDS011;68390;52.130;21.218;2024-01-16T08:46:26;3.83;;;1.63;;
78989;SDS011;68390;52.130;21.218;2024-01-16T08:48:52;3.35;;;1.80;;
78989;SDS011;68390;52.130;21.218;2024-01-16T08:51:17;3.20;;;2.08;;
78989;SDS011;68390;52.130;21.218;2024-01-16T08:53:42;2.80;;;1.90;;
78989;SDS011;68390;52.130;21.218;2024-01-16T08:56:08;3.55;;;1.27;;
78989;SDS011;68390;52.130;21.218;2024-01-16T08:58:34;4.78;;;1.73;;
78989;SDS011;68390;52.130;21.218;2024-01-16T09:01:04;4.13;;;2.10;;
78989;SDS011;68390;52.130;21.218;2024-01-16T09:03:31;3.40;;;1.70;;
78989;SDS011;68390;52.130;21.218;2024-01-16T09:05:57;3.05;;;1.70;;
78989;SDS011;68390;52.130;21.218;2024-01-16T09:08:22;4.07;;;1.45;;
78989;SDS011;68390;52.130;21.218;2024-01-16T09:10:48;4.07;;;1.87;;
78989;SDS011;68390;52.130;21.218;2024-01-16T09:13:13;2.97;;;1.20;;
78989;SDS011;68390;52.130;21.218;2024-01-16T09:15:39;3.22;;;1.88;;
78989;SDS011;68390;52.130;21.218;2024-01-16T09:18:04;2.40;;;1.08;;
78989;SDS011;68390;52.130;21.218;2024-01-16T09:20:31;8.43;;;2.13;;
78989;SDS011;68390;52.130;21.218;2024-01-16T09:22:56;2.38;;;1.35;;
78989;SDS011;68390;52.130;21.218;2024-01-16T09:25:21;3.00;;;1.63;;
78989;SDS011;68390;52.130;21.218;2024-01-16T09:27:49;3.22;;;1.60;;
78989;SDS011;68390;52.130;21.218;2024-01-16T09:30:15;4.10;;;1.50;;
78989;SDS011;68390;52.130;21.218;2024-01-16T09:32:41;4.32;;;1.70;;
78989;SDS011;68390;52.130;21.218;2024-01-16T09:35:08;2.45;;;1.08;;
78989;SDS011;68390;52.130;21.218;2024-01-16T09:37:34;2.13;;;1.25;;
78989;SDS011;68390;52.130;21.218;2024-01-16T09:40:00;5.07;;;1.50;;
78989;SDS011;68390;52.130;21.218;2024-01-16T09:42:26;4.40;;;1.50;;
78989;SDS011;68390;52.130;21.218;2024-01-16T09:44:52;3.65;;;1.60;;
78989;SDS011;68390;52.130;21.218;2024-01-16T09:47:20;3.00;;;1.33;;
78989;SDS011;68390;52.130;21.218;2024-01-16T09:49:46;3.10;;;1.30;;
78989;SDS011;68390;52.130;21.218;2024-01-16T09:52:12;3.38;;;1.40;;
78989;SDS011;68390;52.130;21.218;2024-01-16T09:54:37;2.92;;;1.40;;
78989;SDS011;68390;52.130;21.218;2024-01-16T09:57:03;2.93;;;1.43;;
78989;SDS011;68390;52.130;21.218;2024-01-16T09:59:32;4.00;;;1.65;;
78989;SDS011;68390;52.130;21.218;2024-01-16T10:02:00;5.70;;;2.08;;
78989;SDS011;68390;52.130;21.218;2024-01-16T10:04:30;4.18;;;2.00;;
78989;SDS011;68390;52.130;21.218;2024-01-16T10:06:56;2.63;;;1.38;;
78989;SDS011;68390;52.130;21.218;2024-01-16T10:09:23;3.78;;;1.70;;
78989;SDS011;68390;52.130;21.218;2024-01-16T10:11:50;5.72;;;1.42;;
78989;SDS011;68390;52.130;21.218;2024-01-16T10:14:15;3.70;;;1.52;;
78989;SDS011;68390;52.130;21.218;2024-01-16T10:16:55;2.28;;;1.30;;
78989;SDS011;68390;52.130;21.218;2024-01-16T10:19:24;3.33;;;1.60;;
78989;SDS011;68390;52.130;21.218;2024-01-16T10:21:52;3.47;;;1.52;;
78989;SDS011;68390;52.130;21.218;2024-01-16T10:24:18;3.05;;;1.60;;
78989;SDS011;68390;52.130;21.218;2024-01-16T10:26:43;3.23;;;1.77;;
78989;SDS011;68390;52.130;21.218;2024-01-16T10:29:08;3.17;;;1.40;;
78989;SDS011;68390;52.130;21.218;2024-01-16T10:31:34;5.03;;;1.95;;
78989;SDS011;68390;52.130;21.218;2024-01-16T10:33:59;3.58;;;1.55;;
78989;SDS011;68390;52.130;21.218;2024-01-16T10:36:25;2.53;;;1.98;;
78989;SDS011;68390;52.130;21.218;2024-01-16T10:38:51;2.75;;;1.70;;
78989;SDS011;68390;52.130;21.218;2024-01-16T10:41:23;3.45;;;1.75;;
78989;SDS011;68390;52.130;21.218;2024-01-16T10:44:04;4.07;;;1.55;;
78989;SDS011;68390;52.130;21.218;2024-01-16T10:46:32;2.83;;;1.60;;
78989;SDS011;68390;52.130;21.218;2024-01-16T10:48:58;3.35;;;1.67;;
78989;SDS011;68390;52.130;21.218;2024-01-16T10:51:26;3.78;;;2.13;;
78989;SDS011;68390;52.130;21.218;2024-01-16T10:53:55;2.85;;;1.80;;
78989;SDS011;68390;52.130;21.218;2024-01-16T10:56:23;4.55;;;1.88;;
78989;SDS011;68390;52.130;21.218;2024-01-16T10:58:51;3.37;;;1.80;;
78989;SDS011;68390;52.130;21.218;2024-01-16T11:01:29;4.22;;;2.08;;
78989;SDS011;68390;52.130;21.218;2024-01-16T11:03:56;8.30;;;3.30;;
78989;SDS011;68390;52.130;21.218;2024-01-16T11:06:24;4.85;;;2.88;;
78989;SDS011;68390;52.130;21.218;2024-01-16T11:08:49;4.50;;;2.40;;
78989;SDS011;68390;52.130;21.218;2024-01-16T11:11:16;5.90;;;2.33;;
78989;SDS011;68390;52.130;21.218;2024-01-16T11:13:42;5.43;;;2.30;;
78989;SDS011;68390;52.130;21.218;2024-01-16T11:16:12;4.70;;;2.17;;
78989;SDS011;68390;52.130;21.218;2024-01-16T11:18:37;5.43;;;2.83;;
78989;SDS011;68390;52.130;21.218;2024-01-16T11:21:07;5.80;;;2.13;;
78989;SDS011;68390;52.130;21.218;2024-01-16T11:23:35;3.95;;;2.53;;
78989;SDS011;68390;52.130;21.218;2024-01-16T11:28:49;3.95;;;2.22;;
78989;SDS011;68390;52.130;21.218;2024-01-16T11:31:34;4.95;;;2.70;;
78989;SDS011;68390;52.130;21.218;2024-01-16T11:34:04;5.22;;;2.78;;
78989;SDS011;68390;52.130;21.218;2024-01-16T11:39:17;8.55;;;2.83;;
78989;SDS011;68390;52.130;21.218;2024-01-16T11:44:35;5.78;;;3.05;;
78989;SDS011;68390;52.130;21.218;2024-01-16T11:47:05;6.68;;;2.67;;
78989;SDS011;68390;52.130;21.218;2024-01-16T11:49:31;6.63;;;3.72;;
78989;SDS011;68390;52.130;21.218;2024-01-16T11:51:59;6.30;;;2.85;;
78989;SDS011;68390;52.130;21.218;2024-01-16T11:54:24;5.93;;;2.50;;
78989;SDS011;68390;52.130;21.218;2024-01-16T12:05:10;7.65;;;2.70;;
78989;SDS011;68390;52.130;21.218;2024-01-16T12:07:46;5.10;;;2.70;;
78989;SDS011;68390;52.130;21.218;2024-01-16T12:10:14;9.23;;;3.28;;
78989;SDS011;68390;52.130;21.218;2024-01-16T12:12:43;7.53;;;3.22;;
78989;SDS011;68390;52.130;21.218;2024-01-16T12:15:15;9.00;;;2.95;;
78989;SDS011;68390;52.130;21.218;2024-01-16T12:17:54;6.13;;;2.78;;
78989;SDS011;68390;52.130;21.218;2024-01-16T12:20:21;8.35;;;3.08;;
78989;SDS011;68390;52.130;21.218;2024-01-16T12:23:01;7.82;;;3.33;;
78989;SDS011;68390;52.130;21.218;2024-01-16T12:25:27;5.55;;;3.33;;
78989;SDS011;68390;52.130;21.218;2024-01-16T12:27:54;9.05;;;3.22;;
78989;SDS011;68390;52.130;21.218;2024-01-16T12:30:24;4.80;;;2.97;;
78989;SDS011;68390;52.130;21.218;2024-01-16T12:33:05;5.38;;;2.33;;
78989;SDS011;68390;52.130;21.218;2024-01-16T12:35:38;5.57;;;2.90;;
78989;SDS011;68390;52.130;21.218;2024-01-16T12:38:05;7.07;;;2.97;;
78989;SDS011;68390;52.130;21.218;2024-01-16T12:40:54;8.93;;;3.20;;
78989;SDS011;68390;52.130;21.218;2024-01-16T12:43:19;6.88;;;2.85;;
78989;SDS011;68390;52.130;21.218;2024-01-16T12:45:45;9.55;;;4.32;;
78989;SDS011;68390;52.130;21.218;2024-01-16T12:48:11;7.60;;;3.15;;
78989;SDS011;68390;52.130;21.218;2024-01-16T12:50:36;7.18;;;3.55;;
78989;SDS011;68390;52.130;21.218;2024-01-16T13:00:42;6.35;;;2.58;;
78989;SDS011;68390;52.130;21.218;2024-01-16T13:03:15;7.40;;;2.85;;
78989;SDS011;68390;52.130;21.218;2024-01-16T13:05:56;8.10;;;2.80;;
78989;SDS011;68390;52.130;21.218;2024-01-16T13:08:25;5.65;;;2.90;;
78989;SDS011;68390;52.130;21.218;2024-01-16T13:11:04;7.45;;;3.13;;
78989;SDS011;68390;52.130;21.218;2024-01-16T13:13:30;4.75;;;2.45;;
78989;SDS011;68390;52.130;21.218;2024-01-16T13:15:56;7.00;;;2.70;;
78989;SDS011;68390;52.130;21.218;2024-01-16T13:18:22;6.68;;;2.83;;
78989;SDS011;68390;52.130;21.218;2024-01-16T13:20:50;5.13;;;2.55;;
78989;SDS011;68390;52.130;21.218;2024-01-16T13:23:16;6.53;;;2.80;;
78989;SDS011;68390;52.130;21.218;2024-01-16T13:25:43;6.60;;;2.83;;
78989;SDS011;68390;52.130;21.218;2024-01-16T13:28:10;7.15;;;3.50;;
78989;SDS011;68390;52.130;21.218;2024-01-16T13:30:39;6.70;;;2.60;;
78989;SDS011;68390;52.130;21.218;2024-01-16T13:33:06;9.88;;;4.07;;
78989;SDS011;68390;52.130;21.218;2024-01-16T13:35:31;6.22;;;2.67;;
78989;SDS011;68390;52.130;21.218;2024-01-16T13:37:58;4.85;;;2.72;;
78989;SDS011;68390;52.130;21.218;2024-01-16T13:40:24;5.25;;;3.00;;
78989;SDS011;68390;52.130;21.218;2024-01-16T13:42:49;4.10;;;2.37;;
78989;SDS011;68390;52.130;21.218;2024-01-16T13:45:14;6.83;;;2.50;;
78989;SDS011;68390;52.130;21.218;2024-01-16T13:47:40;6.40;;;3.03;;
78989;SDS011;68390;52.130;21.218;2024-01-16T13:50:08;6.88;;;3.25;;
78989;SDS011;68390;52.130;21.218;2024-01-16T13:52:35;7.43;;;3.40;;
78989;SDS011;68390;52.130;21.218;2024-01-16T13:55:01;6.45;;;2.85;;
78989;SDS011;68390;52.130;21.218;2024-01-16T13:57:30;5.60;;;2.92;;
78989;SDS011;68390;52.130;21.218;2024-01-16T13:59:56;8.35;;;3.00;;
78989;SDS011;68390;52.130;21.218;2024-01-16T14:02:22;7.78;;;3.72;;
78989;SDS011;68390;52.130;21.218;2024-01-16T14:04:48;6.38;;;2.92;;
78989;SDS011;68390;52.130;21.218;2024-01-16T14:07:13;6.83;;;2.40;;
78989;SDS011;68390;52.130;21.218;2024-01-16T14:09:38;6.23;;;2.90;;
78989;SDS011;68390;52.130;21.218;2024-01-16T14:12:06;3.65;;;2.22;;
78989;SDS011;68390;52.130;21.218;2024-01-16T14:14:33;6.97;;;3.70;;
78989;SDS011;68390;52.130;21.218;2024-01-16T14:16:59;7.03;;;2.78;;
78989;SDS011;68390;52.130;21.218;2024-01-16T14:19:25;9.63;;;4.88;;
78989;SDS011;68390;52.130;21.218;2024-01-16T14:21:52;9.88;;;3.63;;
78989;SDS011;68390;52.130;21.218;2024-01-16T14:24:17;5.05;;;2.75;;
78989;SDS011;68390;52.130;21.218;2024-01-16T14:26:43;9.17;;;3.07;;
78989;SDS011;68390;52.130;21.218;2024-01-16T14:29:09;8.15;;;3.03;;
78989;SDS011;68390;52.130;21.218;2024-01-16T14:31:35;9.38;;;3.58;;
78989;SDS011;68390;52.130;21.218;2024-01-16T14:34:00;13.98;;;3.67;;
78989;SDS011;68390;52.130;21.218;2024-01-16T14:36:26;7.85;;;4.20;;
78989;SDS011;68390;52.130;21.218;2024-01-16T14:38:51;6.45;;;3.35;;
78989;SDS011;68390;52.130;21.218;2024-01-16T14:41:16;9.63;;;3.80;;
78989;SDS011;68390;52.130;21.218;2024-01-16T14:43:42;7.13;;;4.03;;
78989;SDS011;68390;52.130;21.218;2024-01-16T14:46:07;8.07;;;2.53;;
78989;SDS011;68390;52.130;21.218;2024-01-16T14:48:37;7.95;;;3.08;;
78989;SDS011;68390;52.130;21.218;2024-01-16T14:51:03;5.85;;;2.83;;
78989;SDS011;68390;52.130;21.218;2024-01-16T14:53:29;6.72;;;2.92;;
78989;SDS011;68390;52.130;21.218;2024-01-16T14:55:54;5.90;;;2.45;;